Ana Sayfa
METAR-TAF:

METAR-TAF

Havaalanları :

Pakse, Laos

Enlem: 15-08-02N, Boylam: 105-46-55E, yükseklik: 107 m

Güncel hava durumu gözlemi

Rapor saat 07:00 UTC de 34 dakika önce yapıldı.
Rüzgar batıdan 4 kt
Sıcaklık 35°C
Nem 25%
Basınç 1012 hPa
Görüş mesafesi: 6000 m

METAR: VLPS 250700Z 27004KT 6000 NSC 35/12 Q1012 NOSIG

Saat: 14:34 (07:34 UTC)

Tahmin

Rapor saat 05:00 UTC de 2 saat ve 34 dakika önce yapıldı.
Ayın 25'si saat 06 UTC'den ayın 26'si saat 06 UTC'ye kadar geçerli Tahmin
Rüzgar kuzeybatıdan 4 kt
Görüş mesafesi: 7000 m
2000 ft yükseklikte az bulutlu
20000 ft yükseklikte az bulutlu

TAF: VLPS 250500Z 2506/2606 32004KT 7000 FEW020 FEW200

4.000'den fazla havaalanı için hava durumu gözlemleri ve tahminleri (METAR ve TAF raporları).

Kullanılabilir istasyonlar harita üzerinde sarı ve kırmızı noktalarla gösterilir.

İstasyonun adını görmek için fareyi noktanın üzerinde gezdirin.

Sonrasında hava gözlem ve tahminlerini görmek için tıklayın.

Haritayı değiştirmek için: yaklaştırmak için siyah artı işaretli yeşil düğmeye ve uzaklaştırmak için de eksi işaretli düğmeye hızla tıklayın; bitişik haritalar için yeşil okları kullanın.


METAR-TAF: